createdAt,value
2022-12-24T00:01:01.782Z,2.47
2022-12-24T00:03:29.835Z,2.10
2022-12-24T00:05:57.809Z,2.20
2022-12-24T00:08:25.944Z,2.10
2022-12-24T00:10:54.863Z,1.90
2022-12-24T00:13:24.203Z,2.10
2022-12-24T00:15:52.107Z,2.10
2022-12-24T00:18:19.893Z,2.90
2022-12-24T00:20:49.436Z,2.90
2022-12-24T00:23:17.549Z,2.87
2022-12-24T00:25:45.424Z,3.13
2022-12-24T00:28:13.978Z,2.27
2022-12-24T00:30:44.445Z,2.50
2022-12-24T00:33:12.404Z,3.03
2022-12-24T00:35:41.326Z,2.20
2022-12-24T00:38:09.984Z,2.20
2022-12-24T00:40:37.921Z,2.90
2022-12-24T00:43:05.671Z,2.67
2022-12-24T00:45:33.420Z,2.30
2022-12-24T00:48:02.444Z,2.27
2022-12-24T00:50:30.178Z,2.40
2022-12-24T00:52:57.860Z,2.10
2022-12-24T00:55:25.589Z,3.03
2022-12-24T00:57:53.353Z,2.20
2022-12-24T01:00:21.534Z,2.60
2022-12-24T01:02:49.306Z,2.80
2022-12-24T01:05:20.651Z,2.27
2022-12-24T01:07:48.896Z,1.90
2022-12-24T01:10:20.444Z,2.10
2022-12-24T01:12:48.508Z,3.03
2022-12-24T01:15:17.186Z,2.70
2022-12-24T01:17:44.833Z,2.30
2022-12-24T01:20:16.295Z,2.50
2022-12-24T01:22:51.327Z,2.60
2022-12-24T01:25:19.107Z,2.23
2022-12-24T01:27:46.740Z,1.77
2022-12-24T01:30:15.499Z,2.10
2022-12-24T01:32:43.208Z,1.83
2022-12-24T01:35:12.127Z,2.47
2022-12-24T01:37:40.479Z,2.20
2022-12-24T01:40:32.341Z,1.90
2022-12-24T01:43:16.885Z,2.27
2022-12-24T01:45:48.583Z,2.30
2022-12-24T01:48:35.066Z,2.13
2022-12-24T01:51:07.634Z,2.10
2022-12-24T01:53:38.476Z,2.33
2022-12-24T01:56:10.604Z,1.80
2022-12-24T01:58:41.255Z,2.00
2022-12-24T02:01:09.086Z,2.70
2022-12-24T02:03:36.928Z,2.70
2022-12-24T02:06:05.752Z,1.60
2022-12-24T02:08:40.808Z,2.00
2022-12-24T02:11:14.938Z,3.13
2022-12-24T02:13:44.784Z,2.03
2022-12-24T02:16:26.650Z,1.97
2022-12-24T02:19:01.231Z,2.27
2022-12-24T02:21:42.763Z,2.53
2022-12-24T02:24:27.451Z,2.70
2022-12-24T02:27:14.028Z,2.67
2022-12-24T02:29:57.926Z,2.93
2022-12-24T02:32:34.353Z,2.17
2022-12-24T02:35:10.457Z,2.47
2022-12-24T02:37:41.643Z,2.03
2022-12-24T02:40:16.814Z,2.50
2022-12-24T02:42:50.274Z,2.40
2022-12-24T02:45:23.173Z,2.43
2022-12-24T02:47:52.586Z,2.60
2022-12-24T02:50:21.478Z,1.60
2022-12-24T02:52:49.771Z,1.83
2022-12-24T02:55:20.853Z,1.90
2022-12-24T02:57:59.781Z,2.93
2022-12-24T03:00:37.148Z,1.93
2022-12-24T03:03:24.031Z,1.67
2022-12-24T03:05:59.523Z,1.93
2022-12-24T03:08:36.077Z,1.93
2022-12-24T03:11:09.852Z,1.70
2022-12-24T03:13:37.997Z,2.20
2022-12-24T03:16:10.397Z,2.00
2022-12-24T03:18:41.654Z,2.13
2022-12-24T03:21:13.109Z,1.87
2022-12-24T03:23:41.070Z,2.30
2022-12-24T03:26:11.903Z,2.37
2022-12-24T03:28:42.134Z,2.60
2022-12-24T03:31:12.217Z,2.03
2022-12-24T03:33:40.972Z,2.27
2022-12-24T03:36:10.050Z,2.27
2022-12-24T03:38:37.771Z,1.90
2022-12-24T03:41:06.187Z,2.27
2022-12-24T03:43:34.052Z,2.00
2022-12-24T03:46:06.243Z,3.07
2022-12-24T03:48:36.388Z,1.97
2022-12-24T03:51:04.647Z,2.37
2022-12-24T03:53:32.540Z,2.83
2022-12-24T03:56:00.256Z,2.63
2022-12-24T03:58:28.070Z,2.37
2022-12-24T04:00:55.797Z,2.67
2022-12-24T04:03:23.916Z,3.03
2022-12-24T04:06:02.897Z,2.77
2022-12-24T04:08:30.627Z,2.70
2022-12-24T04:10:58.431Z,2.47
2022-12-24T04:13:26.212Z,2.43
2022-12-24T04:15:59.286Z,2.37
2022-12-24T04:18:27.260Z,2.93
2022-12-24T04:20:55.642Z,2.60
2022-12-24T04:23:25.194Z,2.27
2022-12-24T04:25:52.933Z,2.60
2022-12-24T04:28:20.739Z,1.93
2022-12-24T04:30:48.547Z,2.20
2022-12-24T04:33:16.231Z,2.50
2022-12-24T04:35:44.071Z,3.20
2022-12-24T04:38:12.036Z,2.37
2022-12-24T04:40:41.107Z,2.97
2022-12-24T04:43:08.853Z,1.80
2022-12-24T04:45:36.715Z,2.57
2022-12-24T04:48:04.545Z,3.00
2022-12-24T04:50:32.207Z,2.40
2022-12-24T04:52:59.965Z,3.20
2022-12-24T04:55:27.688Z,2.60
2022-12-24T04:57:56.732Z,3.50
2022-12-24T05:00:24.435Z,3.70
2022-12-24T05:02:52.872Z,3.27
2022-12-24T05:05:21.341Z,3.80
2022-12-24T05:07:49.114Z,3.20
2022-12-24T05:10:17.012Z,3.40
2022-12-24T05:12:44.662Z,2.60
2022-12-24T05:15:13.731Z,3.17
2022-12-24T05:17:41.651Z,2.73
2022-12-24T05:20:09.748Z,2.83
2022-12-24T05:22:55.241Z,3.47
2022-12-24T05:25:40.565Z,2.83
2022-12-24T05:28:08.318Z,3.83
2022-12-24T05:30:37.421Z,2.83
2022-12-24T05:33:05.335Z,3.87
2022-12-24T05:35:33.025Z,3.20
2022-12-24T05:38:00.676Z,3.23
2022-12-24T05:40:28.291Z,2.70
2022-12-24T05:42:56.113Z,2.83
2022-12-24T05:45:23.806Z,3.90
2022-12-24T05:47:52.864Z,3.77
2022-12-24T05:50:20.665Z,3.67
2022-12-24T05:52:48.329Z,3.87
2022-12-24T05:55:16.201Z,3.57
2022-12-24T05:57:43.931Z,3.77
2022-12-24T06:00:12.237Z,3.50
2022-12-24T06:02:40.056Z,3.70
2022-12-24T06:05:10.132Z,3.93
2022-12-24T06:07:37.877Z,3.20
2022-12-24T06:10:06.663Z,3.50
2022-12-24T06:12:36.708Z,3.57
2022-12-24T06:15:04.753Z,4.37
2022-12-24T06:17:32.503Z,3.97
2022-12-24T06:20:00.309Z,4.43
2022-12-24T06:22:29.504Z,3.63
2022-12-24T06:24:57.135Z,3.90
2022-12-24T06:27:24.987Z,3.90
2022-12-24T06:29:52.679Z,3.40
2022-12-24T06:32:21.885Z,3.70
2022-12-24T06:34:49.571Z,2.93
2022-12-24T06:37:18.747Z,3.93
2022-12-24T06:39:47.984Z,3.53
2022-12-24T06:42:17.745Z,3.23
2022-12-24T06:44:45.418Z,3.37
2022-12-24T06:47:13.108Z,3.83
2022-12-24T06:49:40.841Z,4.60
2022-12-24T06:52:08.652Z,4.37
2022-12-24T06:54:36.375Z,3.23
2022-12-24T06:57:06.964Z,3.40
2022-12-24T06:59:35.095Z,4.00
2022-12-24T07:02:02.899Z,3.67
2022-12-24T07:04:31.264Z,3.73
2022-12-24T07:06:59.010Z,3.30
2022-12-24T07:09:26.773Z,3.73
2022-12-24T07:11:54.522Z,3.80
2022-12-24T07:14:23.622Z,3.33
2022-12-24T07:16:56.864Z,4.10
2022-12-24T07:19:26.599Z,4.07
2022-12-24T07:21:54.340Z,4.13
2022-12-24T07:24:22.051Z,3.70
2022-12-24T07:26:49.762Z,3.73
2022-12-24T07:29:17.513Z,3.70
2022-12-24T07:31:46.562Z,4.03
2022-12-24T07:34:14.399Z,4.10
2022-12-24T07:36:42.110Z,3.23
2022-12-24T07:39:09.754Z,3.33
2022-12-24T07:41:41.725Z,5.40
2022-12-24T07:44:12.324Z,3.80
2022-12-24T07:46:40.222Z,4.07
2022-12-24T07:49:09.443Z,3.90
2022-12-24T07:51:37.552Z,3.70
2022-12-24T07:54:05.661Z,3.37
2022-12-24T07:56:33.765Z,3.60
2022-12-24T07:59:01.546Z,3.67
2022-12-24T08:01:29.373Z,4.70
2022-12-24T08:03:57.260Z,3.67
2022-12-24T08:06:26.416Z,3.93
2022-12-24T08:08:54.259Z,4.53
2022-12-24T08:11:21.955Z,4.37
2022-12-24T08:13:49.719Z,5.03
2022-12-24T08:16:17.594Z,3.10
2022-12-24T08:18:45.360Z,3.63
2022-12-24T08:21:16.112Z,4.30
2022-12-24T08:23:45.331Z,3.80
2022-12-24T08:26:13.712Z,4.50
2022-12-24T08:28:42.573Z,4.43
2022-12-24T08:31:10.884Z,4.20
2022-12-24T08:33:38.850Z,4.83
2022-12-24T08:36:10.850Z,4.17
2022-12-24T08:38:38.914Z,3.93
2022-12-24T08:41:08.668Z,5.27
2022-12-24T08:43:36.651Z,5.10
2022-12-24T08:46:06.401Z,3.47
2022-12-24T08:48:35.241Z,4.30
2022-12-24T08:51:08.287Z,3.73
2022-12-24T08:53:36.230Z,3.73
2022-12-24T08:56:04.515Z,4.80
2022-12-24T08:58:33.650Z,3.57
2022-12-24T09:01:02.121Z,3.97
2022-12-24T09:03:30.814Z,3.70
2022-12-24T09:05:58.509Z,3.40
2022-12-24T09:08:26.170Z,3.73
2022-12-24T09:10:56.394Z,3.87
2022-12-24T09:13:24.154Z,4.40
2022-12-24T09:15:56.692Z,3.87
2022-12-24T09:18:24.612Z,4.67
2022-12-24T09:20:57.039Z,3.97
2022-12-24T09:23:25.250Z,5.17
2022-12-24T09:25:52.893Z,3.47
2022-12-24T09:28:21.067Z,4.13
2022-12-24T09:30:58.621Z,4.73
2022-12-24T09:33:26.907Z,4.03
2022-12-24T09:35:55.266Z,4.90
2022-12-24T09:38:23.744Z,4.40
2022-12-24T09:40:52.880Z,4.23
2022-12-24T09:43:23.463Z,4.03
2022-12-24T09:46:11.027Z,4.30
2022-12-24T09:48:42.865Z,4.20
2022-12-24T09:51:12.594Z,4.27
2022-12-24T09:53:44.708Z,3.77
2022-12-24T09:56:16.969Z,3.93
2022-12-24T09:58:48.622Z,4.03
2022-12-24T10:01:19.380Z,5.43
2022-12-24T10:03:47.616Z,5.47
2022-12-24T10:06:25.010Z,4.60
2022-12-24T10:09:09.605Z,3.90
2022-12-24T10:11:44.592Z,5.10
2022-12-24T10:14:25.894Z,4.33
2022-12-24T10:17:05.558Z,4.57
2022-12-24T10:19:45.172Z,4.03
2022-12-24T10:22:22.620Z,4.03
2022-12-24T10:25:00.305Z,4.37
2022-12-24T10:27:35.017Z,4.53
2022-12-24T10:30:13.279Z,4.57
2022-12-24T10:32:48.243Z,4.23
2022-12-24T10:35:24.155Z,4.90
2022-12-24T10:37:52.709Z,5.00
2022-12-24T10:40:30.720Z,3.80
2022-12-24T10:42:58.890Z,3.80
2022-12-24T10:45:35.078Z,3.57
2022-12-24T10:48:09.346Z,4.97
2022-12-24T10:50:42.165Z,4.00
2022-12-24T10:53:18.834Z,4.97
2022-12-24T10:55:48.869Z,4.37
2022-12-24T10:58:19.569Z,3.77
2022-12-24T11:00:52.251Z,4.50
2022-12-24T11:03:31.048Z,4.53
2022-12-24T11:06:20.972Z,3.30
2022-12-24T11:08:49.008Z,3.73
2022-12-24T11:11:19.227Z,3.60
2022-12-24T11:13:56.348Z,4.70
2022-12-24T11:16:29.665Z,3.50
2022-12-24T11:19:02.231Z,4.90
2022-12-24T11:21:32.384Z,3.80
2022-12-24T11:24:04.109Z,3.70
2022-12-24T11:26:32.668Z,3.80
2022-12-24T11:29:22.499Z,4.63
2022-12-24T11:31:52.672Z,4.47
2022-12-24T11:34:28.429Z,4.53
2022-12-24T11:37:14.308Z,4.90
2022-12-24T11:39:47.238Z,4.53
2022-12-24T11:42:26.834Z,5.40
2022-12-24T11:44:56.511Z,4.30
2022-12-24T11:47:34.401Z,4.33
2022-12-24T11:50:30.407Z,4.40
2022-12-24T11:53:05.408Z,4.90
2022-12-24T11:55:45.529Z,5.07
2022-12-24T11:58:21.361Z,5.33
2022-12-24T12:00:51.568Z,6.03
2022-12-24T12:03:30.140Z,4.20
2022-12-24T12:06:00.929Z,4.30
2022-12-24T12:08:30.149Z,4.03
2022-12-24T12:11:00.429Z,5.20
2022-12-24T12:13:33.167Z,4.73
2022-12-24T12:16:15.604Z,4.40
2022-12-24T12:18:48.955Z,3.90
2022-12-24T12:21:21.049Z,4.33
2022-12-24T12:23:53.007Z,4.27
2022-12-24T12:26:25.639Z,4.70
2022-12-24T12:28:56.998Z,4.97
2022-12-24T12:31:28.707Z,4.10
2022-12-24T12:34:01.706Z,4.63
2022-12-24T12:36:34.639Z,4.40
2022-12-24T12:39:02.411Z,4.03
2022-12-24T12:41:46.346Z,4.83
2022-12-24T12:44:41.741Z,4.97
2022-12-24T12:47:28.435Z,5.10
2022-12-24T12:50:09.333Z,3.83
2022-12-24T12:52:54.630Z,3.97
2022-12-24T12:55:36.565Z,4.00
2022-12-24T12:58:09.495Z,3.80
2022-12-24T13:00:40.547Z,3.67
2022-12-24T13:03:36.408Z,4.50
2022-12-24T13:06:35.963Z,3.40
2022-12-24T13:09:31.471Z,4.23
2022-12-24T13:12:21.088Z,4.60
2022-12-24T13:15:02.876Z,3.17
2022-12-24T13:17:47.994Z,3.20
2022-12-24T13:20:22.993Z,3.87
2022-12-24T13:22:55.457Z,4.73
2022-12-24T13:25:30.554Z,3.50
2022-12-24T13:27:58.582Z,3.97
2022-12-24T13:30:39.821Z,3.83
2022-12-24T13:33:11.520Z,3.17
2022-12-24T13:35:59.267Z,2.60
2022-12-24T13:38:43.912Z,3.23
2022-12-24T13:41:57.469Z,2.73
2022-12-24T13:44:35.021Z,2.47
2022-12-24T13:47:25.256Z,2.83
2022-12-24T13:49:58.878Z,2.97
2022-12-24T13:52:32.019Z,2.17
2022-12-24T13:55:08.997Z,2.17
2022-12-24T13:57:42.402Z,2.53
2022-12-24T14:00:29.911Z,2.43
2022-12-24T14:03:03.552Z,2.50
2022-12-24T14:05:35.493Z,2.60
2022-12-24T14:08:06.053Z,3.53
2022-12-24T14:10:40.036Z,2.47
2022-12-24T14:13:28.209Z,2.60
2022-12-24T14:16:09.175Z,3.53
2022-12-24T14:18:40.977Z,2.17
2022-12-24T14:21:17.413Z,2.87
2022-12-24T14:23:52.575Z,2.60
2022-12-24T14:26:22.511Z,4.00
2022-12-24T14:28:56.525Z,2.53
2022-12-24T14:31:25.921Z,2.60
2022-12-24T14:33:53.893Z,2.70
2022-12-24T14:36:24.893Z,3.60
2022-12-24T14:38:52.684Z,3.20
2022-12-24T14:41:46.836Z,3.00
2022-12-24T14:44:35.614Z,2.70
2022-12-24T14:47:21.015Z,3.17
2022-12-24T14:50:06.055Z,3.30
2022-12-24T14:53:03.869Z,3.57
2022-12-24T14:55:32.167Z,4.13
2022-12-24T14:58:20.786Z,3.87
2022-12-24T15:00:49.063Z,4.27
2022-12-24T15:03:20.742Z,3.37
2022-12-24T15:05:53.560Z,3.97
2022-12-24T15:08:28.823Z,4.83
2022-12-24T15:11:01.575Z,4.40
2022-12-24T15:13:36.833Z,3.70
2022-12-24T15:16:06.829Z,4.27
2022-12-24T15:18:42.779Z,4.17
2022-12-24T15:21:18.249Z,4.80
2022-12-24T15:23:50.293Z,5.67
2022-12-24T15:26:28.399Z,5.53
2022-12-24T15:29:03.784Z,4.33
2022-12-24T15:31:32.737Z,4.67
2022-12-24T15:34:01.969Z,5.53
2022-12-24T15:36:32.498Z,4.33
2022-12-24T15:39:05.553Z,5.30
2022-12-24T15:41:59.180Z,5.53
2022-12-24T15:44:27.931Z,6.10
2022-12-24T15:46:59.969Z,7.23
2022-12-24T15:49:30.809Z,12.20
2022-12-24T15:52:05.416Z,8.93
2022-12-24T15:54:33.545Z,7.47
2022-12-24T15:57:12.403Z,8.10
2022-12-24T15:59:40.146Z,10.00
2022-12-24T16:02:37.265Z,7.97
2022-12-24T16:05:32.295Z,7.53
2022-12-24T16:08:20.444Z,8.83
2022-12-24T16:10:50.108Z,7.30
2022-12-24T16:13:21.233Z,6.57
2022-12-24T16:15:54.467Z,6.60
2022-12-24T16:18:36.581Z,8.43
2022-12-24T16:21:09.760Z,8.23
2022-12-24T16:23:56.690Z,9.70
2022-12-24T16:26:26.343Z,7.50
2022-12-24T16:28:55.796Z,7.13
2022-12-24T16:31:31.999Z,7.83
2022-12-24T16:34:02.125Z,8.63
2022-12-24T16:36:35.468Z,6.47
2022-12-24T16:39:20.783Z,7.13
2022-12-24T16:42:05.281Z,8.23
2022-12-24T16:44:33.147Z,6.17
2022-12-24T16:47:01.656Z,8.53
2022-12-24T16:49:30.841Z,6.57
2022-12-24T16:51:59.952Z,5.33
2022-12-24T16:54:30.036Z,4.97
2022-12-24T16:56:57.842Z,5.20
2022-12-24T16:59:26.120Z,5.07
2022-12-24T17:01:53.983Z,5.33
2022-12-24T17:04:21.833Z,5.57
2022-12-24T17:06:50.775Z,6.57
2022-12-24T17:09:19.815Z,7.50
2022-12-24T17:11:47.529Z,6.97
2022-12-24T17:14:20.333Z,8.27
2022-12-24T17:16:48.864Z,7.37
2022-12-24T17:19:17.865Z,8.67
2022-12-24T17:21:45.840Z,7.43
2022-12-24T17:24:14.486Z,9.90
2022-12-24T17:26:43.689Z,8.13
2022-12-24T17:29:11.827Z,8.23
2022-12-24T17:31:40.782Z,9.23
2022-12-24T17:34:08.627Z,8.67
2022-12-24T17:36:36.322Z,9.23
2022-12-24T17:39:04.154Z,8.77
2022-12-24T17:41:31.905Z,11.73
2022-12-24T17:44:00.973Z,10.93
2022-12-24T17:46:28.679Z,9.80
2022-12-24T17:48:56.492Z,9.30
2022-12-24T17:51:24.563Z,8.90
2022-12-24T17:53:52.361Z,9.57
2022-12-24T17:56:20.105Z,10.13
2022-12-24T17:58:47.849Z,9.27
2022-12-24T18:01:19.920Z,8.30
2022-12-24T18:03:49.317Z,8.00
2022-12-24T18:06:18.405Z,9.70
2022-12-24T18:08:47.944Z,9.60
2022-12-24T18:11:18.123Z,9.47
2022-12-24T18:13:46.563Z,8.97
2022-12-24T18:16:17.884Z,9.50
2022-12-24T18:18:45.789Z,9.17
2022-12-24T18:21:13.683Z,7.63
2022-12-24T18:23:43.738Z,9.67
2022-12-24T18:26:12.184Z,9.50
2022-12-24T18:28:40.433Z,8.97
2022-12-24T18:31:10.697Z,8.03
2022-12-24T18:33:40.369Z,11.10
2022-12-24T18:36:09.489Z,13.03
2022-12-24T18:38:37.315Z,11.80
2022-12-24T18:41:06.203Z,10.67
2022-12-24T18:43:34.879Z,10.37
2022-12-24T18:46:07.736Z,9.77
2022-12-24T18:48:35.611Z,9.27
2022-12-24T18:51:06.489Z,10.10
2022-12-24T18:53:34.323Z,9.53
2022-12-24T18:56:06.381Z,8.80
2022-12-24T18:58:34.135Z,9.30
2022-12-24T19:01:01.895Z,10.83
2022-12-24T19:03:29.595Z,9.90
2022-12-24T19:06:02.086Z,9.93
2022-12-24T19:08:56.467Z,9.23
2022-12-24T19:11:19.315Z,9.40
2022-12-24T19:13:48.191Z,11.87
2022-12-24T19:16:17.326Z,10.67
2022-12-24T19:18:45.159Z,10.37
2022-12-24T19:21:15.066Z,11.57
2022-12-24T19:23:44.320Z,12.20
2022-12-24T19:26:12.963Z,14.00
2022-12-24T19:28:41.065Z,13.87
2022-12-24T19:31:11.268Z,14.77
2022-12-24T19:33:43.000Z,13.30
2022-12-24T19:36:13.688Z,12.23
2022-12-24T19:38:41.852Z,13.00
2022-12-24T19:41:14.116Z,11.53
2022-12-24T19:43:44.651Z,12.10
2022-12-24T19:46:14.713Z,10.63
2022-12-24T19:48:43.424Z,10.43
2022-12-24T19:51:12.799Z,11.83
2022-12-24T19:53:41.123Z,13.20
2022-12-24T19:56:09.633Z,12.30
2022-12-24T19:58:38.724Z,12.33
2022-12-24T20:01:14.440Z,11.83
2022-12-24T20:03:45.277Z,11.33
2022-12-24T20:06:16.559Z,10.13
2022-12-24T20:08:44.479Z,9.63
2022-12-24T20:11:14.843Z,11.47
2022-12-24T20:13:46.754Z,10.83
2022-12-24T20:16:19.704Z,10.00
2022-12-24T20:18:52.266Z,11.13
2022-12-24T20:21:20.249Z,9.27
2022-12-24T20:23:50.532Z,10.37
2022-12-24T20:26:23.577Z,10.97
2022-12-24T20:28:53.279Z,10.00
2022-12-24T20:31:23.231Z,9.80
2022-12-24T20:33:51.398Z,8.90
2022-12-24T20:36:20.959Z,10.07
2022-12-24T20:38:49.159Z,10.43
2022-12-24T20:41:19.153Z,10.63
2022-12-24T20:43:48.849Z,10.63
2022-12-24T20:46:19.060Z,9.93
2022-12-24T20:48:47.251Z,10.07
2022-12-24T20:51:23.893Z,9.40
2022-12-24T20:53:52.656Z,8.73
2022-12-24T20:56:20.645Z,13.20
2022-12-24T20:58:48.478Z,12.90
2022-12-24T21:01:24.413Z,8.97
2022-12-24T21:03:56.356Z,10.10
2022-12-24T21:06:24.302Z,10.50
2022-12-24T21:08:53.132Z,9.57
2022-12-24T21:11:39.390Z,10.17
2022-12-24T21:14:07.806Z,8.37
2022-12-24T21:16:38.672Z,8.87
2022-12-24T21:19:07.651Z,9.10
2022-12-24T21:21:36.336Z,10.13
2022-12-24T21:24:06.027Z,14.00
2022-12-24T21:26:33.978Z,10.03
2022-12-24T21:29:04.360Z,8.07
2022-12-24T21:31:32.457Z,8.73
2022-12-24T21:34:01.596Z,8.37
2022-12-24T21:36:29.309Z,7.77
2022-12-24T21:38:57.078Z,8.87
2022-12-24T21:41:25.951Z,6.97
2022-12-24T21:43:54.557Z,7.57
2022-12-24T21:46:27.167Z,8.30
2022-12-24T21:49:14.190Z,7.17
2022-12-24T21:51:46.623Z,7.50
2022-12-24T21:54:28.672Z,7.33
2022-12-24T21:57:16.134Z,8.77
2022-12-24T21:59:43.914Z,10.47
2022-12-24T22:02:13.129Z,12.33
2022-12-24T22:04:41.192Z,10.00
2022-12-24T22:07:37.353Z,9.73
2022-12-24T22:10:23.885Z,10.40
2022-12-24T22:12:51.522Z,8.20
2022-12-24T22:15:19.377Z,8.07
2022-12-24T22:17:47.148Z,7.23
2022-12-24T22:20:14.970Z,7.97
2022-12-24T22:22:44.050Z,8.13
2022-12-24T22:25:11.764Z,7.10
2022-12-24T22:27:39.507Z,6.87
2022-12-24T22:30:08.959Z,6.83
2022-12-24T22:32:36.920Z,8.07
2022-12-24T22:35:05.028Z,8.20
2022-12-24T22:37:32.819Z,6.50
2022-12-24T22:40:05.672Z,8.70
2022-12-24T22:42:39.236Z,7.43
2022-12-24T22:45:08.317Z,8.10
2022-12-24T22:47:40.521Z,7.63
2022-12-24T22:50:15.979Z,7.03
2022-12-24T22:52:43.780Z,7.23
2022-12-24T22:55:12.875Z,7.60
2022-12-24T22:57:40.611Z,7.40
2022-12-24T23:00:14.282Z,6.57
2022-12-24T23:02:42.233Z,6.53
2022-12-24T23:05:14.296Z,7.20
2022-12-24T23:07:42.147Z,6.20
2022-12-24T23:10:10.214Z,6.27
2022-12-24T23:12:56.619Z,6.03
2022-12-24T23:15:24.336Z,6.73
2022-12-24T23:17:52.065Z,7.20
2022-12-24T23:20:19.885Z,7.23
2022-12-24T23:22:47.644Z,6.60
2022-12-24T23:25:15.385Z,6.60
2022-12-24T23:27:44.475Z,6.67
2022-12-24T23:30:12.554Z,6.30
2022-12-24T23:32:40.372Z,6.07
2022-12-24T23:35:08.838Z,6.57
2022-12-24T23:37:36.550Z,6.80
2022-12-24T23:40:04.851Z,6.63
2022-12-24T23:42:32.633Z,6.00
2022-12-24T23:45:01.806Z,6.30
2022-12-24T23:47:29.473Z,7.00
2022-12-24T23:49:57.369Z,6.27
2022-12-24T23:52:25.109Z,6.40
2022-12-24T23:54:52.820Z,6.70
2022-12-24T23:57:20.577Z,6.33
2022-12-24T23:59:48.523Z,6.80
